Time;durP1;ratioP1;P1;durP2;ratioP2;P2;SDS_P1;SDS_P2;PMS_P1;PMS_P2;Temp;Humidity;BMP_temperature;BMP_pressure;BME280_temperature;BME280_humidity;BME280_pressure;Samples;Min_cycle;Max_cycle;Signal;HPM_P1;HPM_P2
2023/04/29 00:00:09;;;;;;;;;;;9.10;99.90;;;;;;5043702;28;20049;-86
2023/04/29 00:02:35;;;;;;;4.28;2.03;;;9.10;99.90;;;;;;5050813;28;19931;-86
2023/04/29 00:05:03;;;;;;;3.40;1.57;;;9.10;99.90;;;;;;5052307;28;20399;-86
2023/04/29 00:07:32;;;;;;;5.78;2.83;;;9.10;99.90;;;;;;5034013;28;20075;-86
2023/04/29 00:09:58;;;;;;;3.30;1.77;;;9.00;99.90;;;;;;5041941;28;20055;-86
2023/04/29 00:12:24;;;;;;;2.70;1.30;;;9.00;99.90;;;;;;5048265;28;20403;-87
2023/04/29 00:14:50;;;;;;;4.50;1.57;;;9.00;99.90;;;;;;5040936;28;20349;-86
2023/04/29 00:17:16;;;;;;;3.30;1.83;;;9.00;99.90;;;;;;5038808;28;20052;-86
2023/04/29 00:19:42;;;;;;;6.47;1.75;;;9.00;99.90;;;;;;5045783;28;20055;-87
2023/04/29 00:22:08;;;;;;;5.03;1.02;;;9.00;99.90;;;;;;5045388;28;20052;-86
2023/04/29 00:24:33;;;;;;;3.57;1.80;;;9.00;99.90;;;;;;5024530;28;20118;-87
2023/04/29 00:27:01;;;;;;;3.40;1.80;;;9.00;99.90;;;;;;5009901;28;20040;-86
2023/04/29 00:29:27;;;;;;;2.25;1.40;;;8.90;99.90;;;;;;5030647;28;20505;-87
2023/04/29 00:31:53;;;;;;;1.55;1.17;;;9.00;99.90;;;;;;5046550;28;20040;-86
2023/04/29 00:34:19;;;;;;;4.27;1.67;;;8.90;99.90;;;;;;5061987;28;20048;-86
2023/04/29 00:36:45;;;;;;;4.50;1.33;;;8.90;99.90;;;;;;5024472;28;20045;-86
2023/04/29 00:39:12;;;;;;;2.53;1.93;;;8.90;99.90;;;;;;5060078;28;20087;-89
2023/04/29 00:41:38;;;;;;;4.05;1.58;;;8.90;99.90;;;;;;5061936;28;20502;-86
2023/04/29 00:44:04;;;;;;;1.75;1.40;;;8.90;99.90;;;;;;5065108;28;20036;-86
2023/04/29 00:46:30;;;;;;;2.50;1.40;;;8.80;99.90;;;;;;5069085;28;20398;-86
2023/04/29 00:48:55;;;;;;;4.53;2.00;;;8.90;99.90;;;;;;5057119;28;20060;-87
2023/04/29 00:51:21;;;;;;;2.47;1.37;;;8.80;99.90;;;;;;5044373;28;20109;-87
2023/04/29 00:53:47;;;;;;;2.47;1.97;;;8.80;99.90;;;;;;5049540;28;20553;-86
2023/04/29 00:56:14;;;;;;;1.90;1.40;;;8.80;99.90;;;;;;5025918;28;20041;-86
2023/04/29 00:58:48;;;;;;;5.03;2.03;;;8.80;99.90;;;;;;5050403;28;20398;-86
2023/04/29 01:01:15;;;;;;;1.73;1.27;;;8.80;99.90;;;;;;5038864;28;20051;-86
2023/04/29 01:03:41;;;;;;;2.78;1.77;;;8.80;99.90;;;;;;5039206;28;20143;-86
2023/04/29 01:06:40;;;;;;;1.83;1.30;;;8.70;99.90;;;;;;5021455;28;20045;-86
2023/04/29 01:09:26;;;;;;;3.10;1.33;;;8.70;99.90;;;;;;5040563;28;20045;-86
2023/04/29 01:12:05;;;;;;;3.88;2.10;;;8.70;99.90;;;;;;5056266;28;20048;-86
2023/04/29 01:14:33;;;;;;;1.52;1.42;;;8.70;99.90;;;;;;5057113;28;20044;-89
2023/04/29 01:17:05;;;;;;;2.40;1.45;;;8.70;99.90;;;;;;5040759;28;20055;-86
2023/04/29 01:19:49;;;;;;;4.53;2.38;;;8.70;99.90;;;;;;5057172;28;20475;-90
2023/04/29 01:22:16;;;;;;;6.82;2.60;;;8.70;99.90;;;;;;5056964;28;20052;-86
2023/04/29 01:24:42;;;;;;;4.70;2.03;;;8.60;99.90;;;;;;5040085;28;20136;-86
2023/04/29 01:27:32;;;;;;;2.83;1.13;;;8.70;99.90;;;;;;5035517;28;20120;-86
2023/04/29 01:30:30;;;;;;;4.20;1.60;;;8.70;99.90;;;;;;5020442;28;20049;-86
2023/04/29 01:33:19;;;;;;;1.20;0.85;;;8.70;99.90;;;;;;5036685;28;20134;-86
2023/04/29 01:36:06;;;;;;;3.67;1.60;;;8.60;99.90;;;;;;5036221;28;20467;-86
2023/04/29 01:38:35;;;;;;;2.83;1.45;;;8.70;99.90;;;;;;5064066;28;20488;-86
2023/04/29 01:41:09;;;;;;;1.77;0.98;;;8.60;99.90;;;;;;5058720;28;20063;-86
2023/04/29 01:43:37;;;;;;;2.45;1.45;;;8.60;99.90;;;;;;5048388;28;20048;-90
2023/04/29 01:46:05;;;;;;;3.72;1.40;;;8.60;99.90;;;;;;5046904;28;20052;-86
2023/04/29 01:48:31;;;;;;;2.20;1.45;;;8.60;99.90;;;;;;5056686;28;20053;-87
2023/04/29 01:50:57;;;;;;;3.83;1.67;;;8.60;99.90;;;;;;5049575;28;20048;-86
2023/04/29 01:53:23;;;;;;;2.23;1.53;;;8.60;99.90;;;;;;5045293;28;20041;-86
2023/04/29 01:55:48;;;;;;;2.30;2.07;;;8.60;99.90;;;;;;5066923;28;20105;-86
2023/04/29 01:58:14;;;;;;;3.77;1.57;;;8.60;99.90;;;;;;5026432;28;20056;-86
2023/04/29 02:00:41;;;;;;;1.10;1.00;;;8.60;99.90;;;;;;5043593;28;20077;-87
2023/04/29 02:03:07;;;;;;;1.75;1.13;;;8.60;99.90;;;;;;5037892;28;20049;-86
2023/04/29 02:05:33;;;;;;;3.70;1.50;;;8.60;99.90;;;;;;5039840;28;20507;-86
2023/04/29 02:07:59;;;;;;;1.57;0.90;;;8.60;99.90;;;;;;5067773;28;20079;-86
2023/04/29 02:10:26;;;;;;;;;;;8.60;99.90;;;;;;5066483;28;20131;-86
2023/04/29 02:12:52;;;;;;;1.17;0.70;;;8.60;99.90;;;;;;5037773;28;19920;-86
2023/04/29 02:15:18;;;;;;;0.95;0.85;;;8.60;99.90;;;;;;5067354;28;20036;-86
2023/04/29 02:17:45;;;;;;;1.10;0.93;;;8.50;99.90;;;;;;5055907;28;20044;-86
2023/04/29 02:20:11;;;;;;;2.78;1.00;;;8.50;99.90;;;;;;5066454;28;20063;-88
2023/04/29 02:22:37;;;;;;;1.35;1.25;;;8.50;99.90;;;;;;5053315;28;20083;-86
2023/04/29 02:25:03;;;;;;;2.07;1.07;;;8.50;99.90;;;;;;5039620;28;20072;-86
2023/04/29 02:27:28;;;;;;;1.90;0.90;;;8.50;99.90;;;;;;5029799;28;20134;-86
2023/04/29 02:29:54;;;;;;;3.13;1.90;;;8.50;99.90;;;;;;5057773;28;20047;-86
2023/04/29 02:32:20;;;;;;;1.70;0.57;;;8.50;99.90;;;;;;5041803;28;20076;-87
2023/04/29 02:34:46;;;;;;;3.33;1.37;;;8.40;99.90;;;;;;5057287;28;20064;-86
2023/04/29 02:37:11;;;;;;;3.83;1.47;;;8.50;99.90;;;;;;5018556;28;20044;-87
2023/04/29 02:39:37;;;;;;;1.90;0.90;;;8.40;99.90;;;;;;5049329;28;20041;-86
2023/04/29 02:42:03;;;;;;;2.03;0.97;;;8.40;99.90;;;;;;5036510;28;20052;-86
2023/04/29 02:44:30;;;;;;;1.47;1.33;;;8.40;99.90;;;;;;5062892;28;20059;-86
2023/04/29 02:46:56;;;;;;;3.80;1.55;;;8.40;99.90;;;;;;5038261;28;20140;-86
2023/04/29 02:49:22;;;;;;;1.90;1.65;;;8.40;99.90;;;;;;5049823;28;20052;-86
2023/04/29 02:51:51;;;;;;;2.13;1.07;;;8.40;99.90;;;;;;5036670;28;20442;-86
2023/04/29 02:54:16;;;;;;;3.08;1.25;;;8.40;99.90;;;;;;5023259;28;20179;-88
2023/04/29 02:56:43;;;;;;;2.27;1.67;;;8.40;99.90;;;;;;5035068;28;20128;-89
2023/04/29 02:59:09;;;;;;;1.40;1.30;;;8.40;99.90;;;;;;5044097;28;20052;-86
2023/04/29 03:01:34;;;;;;;1.77;1.10;;;8.40;99.90;;;;;;5034855;28;20048;-86
2023/04/29 03:04:00;;;;;;;1.43;0.67;;;8.40;99.90;;;;;;5033487;28;20071;-86
2023/04/29 03:06:26;;;;;;;2.27;0.80;;;8.40;99.90;;;;;;5036134;28;20111;-87
2023/04/29 03:08:52;;;;;;;2.30;0.98;;;8.40;99.90;;;;;;5050344;28;20048;-86
2023/04/29 03:11:19;;;;;;;2.63;1.30;;;8.40;99.90;;;;;;5061684;28;20041;-86
2023/04/29 03:13:45;;;;;;;3.00;0.90;;;8.30;99.90;;;;;;5023232;28;20044;-90
2023/04/29 03:16:13;;;;;;;5.67;1.43;;;8.30;99.90;;;;;;5052184;28;20048;-86
2023/04/29 03:18:40;;;;;;;2.67;1.25;;;8.40;99.90;;;;;;5056462;28;20044;-86
2023/04/29 03:21:05;;;;;;;1.23;1.00;;;8.30;99.90;;;;;;5043217;28;20155;-85
2023/04/29 03:23:31;;;;;;;3.20;1.27;;;8.30;99.90;;;;;;5041099;28;20124;-86
2023/04/29 03:25:57;;;;;;;1.40;0.90;;;8.30;99.90;;;;;;5047033;28;20083;-86
2023/04/29 03:28:23;;;;;;;2.47;1.27;;;8.30;99.90;;;;;;5041105;28;20300;-89
2023/04/29 03:30:48;;;;;;;2.93;1.10;;;8.30;99.90;;;;;;5024201;28;20048;-90
2023/04/29 03:33:14;;;;;;;1.80;1.67;;;8.30;99.90;;;;;;5037627;28;20048;-86
2023/04/29 03:35:40;;;;;;;1.50;0.67;;;8.30;99.90;;;;;;5046334;28;20043;-86
2023/04/29 03:38:06;;;;;;;2.60;0.80;;;8.20;99.90;;;;;;5032362;28;20098;-86
2023/04/29 03:40:31;;;;;;;1.60;1.23;;;8.20;99.90;;;;;;5063208;28;20064;-87
2023/04/29 03:42:57;;;;;;;1.83;1.10;;;8.20;99.90;;;;;;5034041;28;20471;-87
2023/04/29 03:45:23;;;;;;;1.80;1.00;;;8.20;99.90;;;;;;5064609;28;20107;-86
2023/04/29 03:47:48;;;;;;;2.13;1.00;;;8.30;99.90;;;;;;5038444;28;20063;-87
2023/04/29 03:50:14;;;;;;;1.73;1.13;;;8.20;99.90;;;;;;5047647;28;20049;-86
2023/04/29 03:52:40;;;;;;;2.67;1.50;;;8.20;99.90;;;;;;5044760;28;20498;-86
2023/04/29 03:55:06;;;;;;;2.70;1.30;;;8.10;99.90;;;;;;5060598;28;20048;-86
2023/04/29 03:57:32;;;;;;;1.63;0.95;;;8.10;99.90;;;;;;5054726;28;20051;-86
2023/04/29 03:59:58;;;;;;;2.57;1.43;;;8.10;99.90;;;;;;5037776;28;20045;-86
2023/04/29 04:02:24;;;;;;;1.90;1.70;;;8.10;99.90;;;;;;5056312;28;20394;-86
2023/04/29 04:04:50;;;;;;;2.57;1.57;;;8.10;99.90;;;;;;5057034;28;20382;-86
2023/04/29 04:07:15;;;;;;;5.10;1.60;;;8.10;99.90;;;;;;5038093;28;20049;-86
2023/04/29 04:09:41;;;;;;;1.43;0.63;;;8.10;99.90;;;;;;5022191;28;20044;-85
2023/04/29 04:12:07;;;;;;;2.73;1.73;;;8.10;99.90;;;;;;5055839;28;20041;-86
2023/04/29 04:14:33;;;;;;;2.33;1.23;;;8.10;99.90;;;;;;5056423;28;20476;-86
2023/04/29 04:16:59;;;;;;;1.88;1.45;;;8.10;99.90;;;;;;5055606;28;20045;-86
2023/04/29 04:19:25;;;;;;;3.17;1.63;;;8.10;99.90;;;;;;5051170;28;20049;-86
2023/04/29 04:21:51;;;;;;;3.97;1.35;;;8.10;99.90;;;;;;5057303;28;20043;-86
2023/04/29 04:24:17;;;;;;;1.40;0.93;;;8.10;99.90;;;;;;5048753;28;20394;-85
2023/04/29 04:26:42;;;;;;;3.30;1.47;;;8.10;99.90;;;;;;5051575;28;20101;-86
2023/04/29 04:29:08;;;;;;;2.70;1.33;;;8.10;99.90;;;;;;5061262;28;20048;-86
2023/04/29 04:31:35;;;;;;;2.30;1.60;;;8.10;99.90;;;;;;5042305;28;20552;-86
2023/04/29 04:34:01;;;;;;;2.00;1.45;;;8.10;99.90;;;;;;5028298;28;20502;-86
2023/04/29 04:36:27;;;;;;;3.43;1.90;;;8.10;99.90;;;;;;5046900;28;20045;-86
2023/04/29 04:38:53;;;;;;;1.43;1.20;;;8.10;99.90;;;;;;5056702;28;20476;-87
2023/04/29 04:41:18;;;;;;;4.10;1.50;;;8.10;99.90;;;;;;5071626;28;20040;-86
2023/04/29 04:43:47;;;;;;;0.70;0.67;;;8.10;99.90;;;;;;5052216;28;20047;-86
2023/04/29 04:46:14;;;;;;;2.15;0.98;;;8.10;99.90;;;;;;5052100;28;20045;-86
2023/04/29 04:48:40;;;;;;;3.03;0.90;;;8.10;99.90;;;;;;5038492;28;20503;-86
2023/04/29 04:51:10;;;;;;;1.87;0.90;;;8.10;99.90;;;;;;5064772;28;20040;-88
2023/04/29 04:53:36;;;;;;;2.28;1.48;;;8.10;99.90;;;;;;5043534;28;20087;-86
2023/04/29 04:56:02;;;;;;;2.88;1.60;;;8.10;99.90;;;;;;5044068;28;20040;-86
2023/04/29 04:58:30;;;;;;;1.95;1.00;;;8.10;99.90;;;;;;5041881;28;20056;-86
2023/04/29 05:00:56;;;;;;;3.35;1.60;;;8.10;99.90;;;;;;5063169;28;20086;-86
2023/04/29 05:03:22;;;;;;;2.00;1.30;;;8.10;99.90;;;;;;5027194;28;20037;-86
2023/04/29 05:05:55;;;;;;;1.40;0.87;;;8.10;99.90;;;;;;5062547;28;20048;-86
2023/04/29 05:08:21;;;;;;;4.07;0.88;;;8.20;99.90;;;;;;5060922;28;20041;-86
2023/04/29 05:10:47;;;;;;;1.98;0.60;;;8.20;99.90;;;;;;5037233;28;20037;-86
2023/04/29 05:13:12;;;;;;;3.03;1.37;;;8.20;99.90;;;;;;5036640;28;20044;-86
2023/04/29 05:15:38;;;;;;;1.90;1.17;;;8.20;99.90;;;;;;5054568;28;20052;-86
2023/04/29 05:18:04;;;;;;;3.00;0.80;;;8.20;99.90;;;;;;5039580;28;20045;-87
2023/04/29 05:20:30;;;;;;;1.53;0.70;;;8.20;99.90;;;;;;5056758;28;20286;-86
2023/04/29 05:22:56;;;;;;;1.53;0.93;;;8.20;99.90;;;;;;5074256;28;20049;-86
2023/04/29 05:25:21;;;;;;;4.20;1.20;;;8.20;99.90;;;;;;5074479;28;20052;-86
2023/04/29 05:27:47;;;;;;;0.67;0.50;;;8.20;99.90;;;;;;5024152;28;20487;-86
2023/04/29 05:30:13;;;;;;;1.17;0.90;;;8.20;99.90;;;;;;5019139;28;20041;-86
2023/04/29 05:32:39;;;;;;;2.30;1.17;;;8.20;99.90;;;;;;5036544;28;20053;-86
2023/04/29 05:35:05;;;;;;;3.92;0.77;;;8.30;99.90;;;;;;5036644;28;20217;-90
2023/04/29 05:37:31;;;;;;;0.73;0.73;;;8.20;99.90;;;;;;5019696;28;20076;-86
2023/04/29 05:39:57;;;;;;;0.90;0.57;;;8.30;99.90;;;;;;5044029;28;20071;-86
2023/04/29 05:42:22;;;;;;;1.03;0.93;;;8.20;99.90;;;;;;5048976;28;20045;-86
2023/04/29 05:44:49;;;;;;;2.77;0.90;;;8.30;99.90;;;;;;5070350;28;20062;-88
2023/04/29 05:47:15;;;;;;;2.05;0.70;;;8.30;99.90;;;;;;5041219;28;20041;-86
2023/04/29 05:49:41;;;;;;;3.45;1.13;;;8.30;99.90;;;;;;5054587;28;20037;-88
2023/04/29 05:52:06;;;;;;;0.87;0.83;;;8.30;99.90;;;;;;5060993;28;20040;-89
2023/04/29 05:54:32;;;;;;;1.37;1.27;;;8.30;99.90;;;;;;5044015;28;20125;-85
2023/04/29 05:57:01;;;;;;;5.07;1.33;;;8.40;99.90;;;;;;5041125;28;20043;-87
2023/04/29 05:59:29;;;;;;;1.95;1.08;;;8.40;99.90;;;;;;5054924;28;20299;-86
2023/04/29 06:01:55;;;;;;;1.30;1.20;;;8.40;99.90;;;;;;5044527;28;20501;-86
2023/04/29 06:04:21;;;;;;;1.45;0.95;;;8.40;99.90;;;;;;5029895;28;20103;-86
2023/04/29 06:06:47;;;;;;;3.17;0.77;;;8.50;99.90;;;;;;5039657;28;20071;-87
2023/04/29 06:09:17;;;;;;;5.88;1.40;;;8.40;99.90;;;;;;5065588;28;20044;-86
2023/04/29 06:11:43;;;;;;;1.85;1.02;;;8.50;99.90;;;;;;5040725;28;20494;-86
2023/04/29 06:14:09;;;;;;;;;;;8.50;99.90;;;;;;5037955;28;20044;-90
2023/04/29 06:16:35;;;;;;;1.33;0.95;;;8.50;99.90;;;;;;5047754;28;19924;-86
2023/04/29 06:19:01;;;;;;;0.87;0.73;;;8.50;99.90;;;;;;5030516;28;20223;-87
2023/04/29 06:21:27;;;;;;;1.40;1.00;;;8.60;99.90;;;;;;5050114;28;20048;-87
2023/04/29 06:23:53;;;;;;;0.95;0.95;;;8.60;99.90;;;;;;5061151;28;20041;-86
2023/04/29 06:26:20;;;;;;;0.67;0.60;;;8.60;99.90;;;;;;5041821;28;20053;-86
2023/04/29 06:28:46;;;;;;;2.65;1.48;;;8.70;99.90;;;;;;5056582;28;20321;-86
2023/04/29 06:31:12;;;;;;;1.95;0.50;;;8.80;99.90;;;;;;5045696;28;20080;-89
2023/04/29 06:33:38;;;;;;;2.67;0.98;;;8.80;99.90;;;;;;5053061;28;20383;-84
2023/04/29 06:36:04;;;;;;;2.10;1.03;;;8.90;99.90;;;;;;5066909;28;20071;-84
2023/04/29 06:38:30;;;;;;;1.40;1.23;;;9.00;99.90;;;;;;5047174;28;20061;-86
2023/04/29 06:40:59;;;;;;;0.40;0.30;;;9.00;99.90;;;;;;5053120;28;20072;-83
2023/04/29 06:43:26;;;;;;;1.08;0.82;;;9.10;99.90;;;;;;5033568;28;20506;-83
2023/04/29 06:45:52;;;;;;;1.08;0.93;;;9.20;99.90;;;;;;5038114;28;20442;-81
2023/04/29 06:48:18;;;;;;;3.10;1.60;;;9.30;99.90;;;;;;5065894;28;20053;-86
2023/04/29 06:50:51;;;;;;;0.70;0.40;;;9.40;99.90;;;;;;5061624;28;20037;-83
2023/04/29 06:53:17;;;;;;;0.80;0.70;;;9.60;99.90;;;;;;5040523;28;20064;-82
2023/04/29 06:55:44;;;;;;;1.30;0.98;;;9.80;99.90;;;;;;5028418;28;20174;-83
2023/04/29 06:58:09;;;;;;;3.25;1.08;;;10.00;99.90;;;;;;5057050;28;20048;-82
2023/04/29 07:00:35;;;;;;;2.23;0.67;;;10.40;99.90;;;;;;5045301;28;20048;-80
2023/04/29 07:03:01;;;;;;;1.95;0.93;;;10.90;99.90;;;;;;5055462;28;20048;-84
2023/04/29 07:05:28;;;;;;;0.88;0.73;;;11.20;99.90;;;;;;5052751;28;20428;-85
2023/04/29 07:07:53;;;;;;;7.93;1.17;;;11.50;99.90;;;;;;5033807;28;20137;-89
2023/04/29 07:10:19;;;;;;;2.33;1.07;;;11.80;99.90;;;;;;5060252;28;20481;-85
2023/04/29 07:12:45;;;;;;;1.67;0.73;;;11.90;99.90;;;;;;5039634;28;20334;-83
2023/04/29 07:15:10;;;;;;;4.83;1.20;;;12.00;99.90;;;;;;5030044;28;20071;-83
2023/04/29 07:17:36;;;;;;;1.50;0.97;;;12.10;99.90;;;;;;5061311;28;20286;-83
2023/04/29 07:20:03;;;;;;;1.58;0.80;;;12.10;99.90;;;;;;5035667;28;20095;-84
2023/04/29 07:22:29;;;;;;;1.70;1.20;;;12.20;99.90;;;;;;5036298;28;20049;-84
2023/04/29 07:24:55;;;;;;;1.05;0.88;;;12.30;99.90;;;;;;5038142;28;20059;-82
2023/04/29 07:27:21;;;;;;;0.88;0.70;;;12.40;99.90;;;;;;5068751;28;20055;-82
2023/04/29 07:29:47;;;;;;;1.58;0.73;;;12.70;99.90;;;;;;5042087;28;20037;-81
2023/04/29 07:32:14;;;;;;;1.02;0.80;;;12.80;99.90;;;;;;5046336;28;20426;-82
2023/04/29 07:34:40;;;;;;;1.15;0.90;;;13.00;99.90;;;;;;5012564;28;20140;-82
2023/04/29 07:37:06;;;;;;;1.58;0.75;;;13.20;99.90;;;;;;5047918;28;20120;-82
2023/04/29 07:39:31;;;;;;;0.90;0.90;;;13.30;99.90;;;;;;5052839;28;20089;-81
2023/04/29 07:41:58;;;;;;;0.50;0.50;;;13.50;99.90;;;;;;5052576;28;20049;-82
2023/04/29 07:44:24;;;;;;;1.08;1.08;;;13.40;99.90;;;;;;5061792;28;20057;-81
2023/04/29 07:46:50;;;;;;;1.13;0.88;;;13.40;99.90;;;;;;5059885;28;20556;-82
2023/04/29 07:49:16;;;;;;;0.70;0.65;;;13.60;99.90;;;;;;5048018;28;20041;-82
2023/04/29 07:51:42;;;;;;;2.38;0.90;;;13.60;99.90;;;;;;5059926;28;20037;-82
2023/04/29 07:54:08;;;;;;;0.73;0.73;;;13.80;99.90;;;;;;5042392;28;20083;-85
2023/04/29 07:56:34;;;;;;;0.55;0.52;;;13.80;99.90;;;;;;5051552;28;20494;-84
2023/04/29 07:59:00;;;;;;;1.48;1.05;;;14.00;99.90;;;;;;5053662;28;20033;-84
2023/04/29 08:01:27;;;;;;;0.35;0.35;;;14.20;99.90;;;;;;5058220;28;20040;-85
2023/04/29 08:03:53;;;;;;;0.40;0.40;;;14.40;99.90;;;;;;5043166;28;20082;-86
2023/04/29 08:06:21;;;;;;;1.15;0.70;;;14.40;99.90;;;;;;5043513;28;20052;-87
2023/04/29 08:08:47;;;;;;;1.15;0.47;;;14.60;99.90;;;;;;5042481;28;20044;-84
2023/04/29 08:11:20;;;;;;;1.42;1.05;;;14.60;99.90;;;;;;5039465;28;20044;-84
2023/04/29 08:13:46;;;;;;;0.52;0.50;;;14.70;99.90;;;;;;5063991;28;20092;-85
2023/04/29 08:16:12;;;;;;;1.67;0.43;;;14.70;99.90;;;;;;5052511;28;20512;-85
2023/04/29 08:18:39;;;;;;;1.15;0.95;;;14.70;99.90;;;;;;5050112;28;20045;-90
2023/04/29 08:21:05;;;;;;;2.13;0.70;;;14.90;99.90;;;;;;5038710;28;20049;-84
2023/04/29 08:23:31;;;;;;;1.95;0.55;;;15.10;99.90;;;;;;5043204;28;20044;-86
2023/04/29 08:25:57;;;;;;;0.90;0.50;;;15.20;99.90;;;;;;5036781;28;20427;-83
2023/04/29 08:28:24;;;;;;;1.17;0.95;;;15.30;99.90;;;;;;5064684;28;20041;-85
2023/04/29 08:30:49;;;;;;;1.40;1.20;;;15.50;99.90;;;;;;5040347;28;20052;-86
2023/04/29 08:33:15;;;;;;;0.60;0.57;;;15.70;99.90;;;;;;5061233;28;20061;-87
2023/04/29 08:35:41;;;;;;;1.20;0.65;;;15.80;99.90;;;;;;5060554;28;20044;-84
2023/04/29 08:38:08;;;;;;;0.80;0.63;;;15.90;99.90;;;;;;5047532;28;20049;-82
2023/04/29 08:40:40;;;;;;;1.15;0.65;;;15.80;99.90;;;;;;5055670;28;20033;-88
2023/04/29 08:43:05;;;;;;;0.73;0.50;;;15.70;99.90;;;;;;5051738;28;20141;-87
2023/04/29 08:45:33;;;;;;;0.40;0.40;;;15.40;99.90;;;;;;5053918;28;20080;-86
2023/04/29 08:48:02;;;;;;;0.85;0.85;;;15.30;99.90;;;;;;5054245;28;20478;-86
2023/04/29 08:50:29;;;;;;;0.82;0.77;;;15.10;99.90;;;;;;5056715;28;20129;-86
2023/04/29 08:52:55;;;;;;;0.50;0.50;;;15.00;99.90;;;;;;5075059;28;20554;-86
2023/04/29 08:55:21;;;;;;;0.77;0.60;;;15.20;99.90;;;;;;5057732;28;20088;-86
2023/04/29 08:57:49;;;;;;;0.65;0.52;;;15.40;99.90;;;;;;5056970;28;20126;-87
2023/04/29 09:00:15;;;;;;;0.50;0.50;;;15.50;99.90;;;;;;5075343;28;20041;-86
2023/04/29 09:02:48;;;;;;;0.88;0.70;;;15.40;99.90;;;;;;5074735;28;20045;-86
2023/04/29 09:05:15;;;;;;;0.75;0.57;;;15.30;99.90;;;;;;5075124;28;20045;-86
2023/04/29 09:07:42;;;;;;;0.50;0.50;;;15.30;99.90;;;;;;5023937;28;20483;-86
2023/04/29 09:10:08;;;;;;;1.60;0.95;;;15.40;99.90;;;;;;5057054;28;20083;-87
2023/04/29 09:12:35;;;;;;;1.20;0.63;;;15.50;99.90;;;;;;5074578;28;20048;-88
2023/04/29 09:15:01;;;;;;;0.40;0.40;;;15.90;99.90;;;;;;5074070;28;20052;-87
2023/04/29 09:17:50;;;;;;;;;;;16.20;99.90;;;;;;5034942;28;20421;-90
2023/04/29 09:20:21;;;;;;;0.88;0.52;;;16.60;99.90;;;;;;5039777;28;20008;-84
2023/04/29 09:22:49;;;;;;;0.50;0.50;;;16.70;99.90;;;;;;5056763;28;20048;-86
2023/04/29 09:25:15;;;;;;;0.75;0.70;;;16.90;99.90;;;;;;5055211;28;20124;-82
2023/04/29 09:27:41;;;;;;;0.75;0.70;;;17.20;99.90;;;;;;5051337;28;20441;-86
2023/04/29 09:30:08;;;;;;;1.08;0.63;;;17.00;99.90;;;;;;5059804;28;20115;-83
2023/04/29 09:32:34;;;;;;;0.75;0.75;;;17.00;99.90;;;;;;5024182;28;20052;-86
2023/04/29 09:35:23;;;;;;;0.55;0.50;;;16.40;99.90;;;;;;5054534;28;20049;-84
2023/04/29 09:37:48;;;;;;;0.52;0.52;;;16.30;99.90;;;;;;5022232;28;20057;-85
2023/04/29 09:40:31;;;;;;;1.17;1.02;;;16.10;99.90;;;;;;5038548;28;20052;-83
2023/04/29 09:42:58;;;;;;;0.40;0.40;;;15.80;99.90;;;;;;5019872;28;20048;-83
2023/04/29 09:45:43;;;;;;;1.67;0.80;;;15.60;99.90;;;;;;5055077;28;20052;-82
2023/04/29 09:48:11;;;;;;;0.77;0.60;;;15.40;99.90;;;;;;5055865;28;20052;-82
2023/04/29 09:50:38;;;;;;;1.17;0.68;;;15.40;99.90;;;;;;5074082;28;20044;-87
2023/04/29 09:53:07;;;;;;;0.57;0.57;;;15.60;99.90;;;;;;5056065;28;20495;-85
2023/04/29 09:55:34;;;;;;;0.65;0.35;;;15.80;99.90;;;;;;5056538;28;20513;-86
2023/04/29 09:58:00;;;;;;;1.15;0.47;;;16.10;99.90;;;;;;5041547;28;20057;-86
2023/04/29 10:00:31;;;;;;;2.05;0.82;;;16.30;99.90;;;;;;5019633;28;20059;-86
2023/04/29 10:03:00;;;;;;;0.57;0.57;;;16.50;99.90;;;;;;5041911;28;20098;-89
2023/04/29 10:05:29;;;;;;;0.73;0.63;;;16.30;99.90;;;;;;5066820;28;20052;-84
2023/04/29 10:07:57;;;;;;;1.40;0.80;;;16.40;99.90;;;;;;5038439;28;20041;-83
2023/04/29 10:10:23;;;;;;;0.70;0.52;;;16.50;99.90;;;;;;5074035;28;20432;-83
2023/04/29 10:12:54;;;;;;;0.40;0.40;;;16.60;99.90;;;;;;5063244;28;20051;-82
2023/04/29 10:15:32;;;;;;;1.27;0.73;;;16.70;99.90;;;;;;5056150;28;20518;-83
2023/04/29 10:18:19;;;;;;;0.75;0.70;;;16.70;99.90;;;;;;5053967;28;20506;-83
2023/04/29 10:20:46;;;;;;;0.73;0.50;;;17.00;99.90;;;;;;5023312;28;20169;-83
2023/04/29 10:23:17;;;;;;;0.68;0.60;;;16.90;99.90;;;;;;5067485;28;20099;-83
2023/04/29 10:25:45;;;;;;;0.52;0.30;;;16.80;99.90;;;;;;5054686;28;20051;-88
2023/04/29 10:28:15;;;;;;;0.95;0.82;;;16.90;99.90;;;;;;5037892;28;20040;-84
2023/04/29 10:30:49;;;;;;;0.77;0.47;;;17.10;99.90;;;;;;5055540;28;20048;-84
2023/04/29 10:33:16;;;;;;;0.63;0.60;;;17.30;99.90;;;;;;5063619;28;20127;-85
2023/04/29 10:35:48;;;;;;;0.60;0.60;;;17.30;99.90;;;;;;5019185;28;20426;-89
2023/04/29 10:38:46;;;;;;;1.20;0.65;;;17.50;99.90;;;;;;5053179;28;20055;-86
2023/04/29 10:41:38;;;;;;;0.77;0.52;;;17.60;99.90;;;;;;5024415;28;20190;-86
2023/04/29 10:44:04;;;;;;;0.95;0.30;;;17.90;99.90;;;;;;5028283;28;20052;-90
2023/04/29 10:46:30;;;;;;;0.40;0.40;;;17.90;99.90;;;;;;5035939;28;20055;-86
2023/04/29 10:49:02;;;;;;;;;;;17.90;99.90;;;;;;5053623;28;20048;-92
2023/04/29 10:51:40;;;;;;;0.45;0.30;;;17.70;99.90;;;;;;5018382;28;19921;-88
2023/04/29 10:54:09;;;;;;;0.88;0.50;;;17.80;99.90;;;;;;5052992;28;20171;-92
2023/04/29 10:56:53;;;;;;;0.68;0.50;;;17.80;99.90;;;;;;5053282;28;20479;-88
2023/04/29 10:59:21;;;;;;;0.65;0.55;;;17.90;99.90;;;;;;5035311;28;20487;-94
2023/04/29 11:01:49;;;;;;;0.65;0.50;;;18.00;99.90;;;;;;5035282;28;20426;-90
2023/04/29 11:04:19;;;;;;;0.77;0.25;;;18.10;99.90;;;;;;5059074;28;20049;-88
2023/04/29 11:06:52;;;;;;;0.73;0.30;;;18.20;99.90;;;;;;5034783;28;20045;-90
2023/04/29 11:09:25;;;;;;;0.82;0.57;;;18.80;99.90;;;;;;5044886;28;20544;-91
2023/04/29 11:11:54;;;;;;;0.88;0.50;;;18.40;99.90;;;;;;5053727;28;20136;-91
2023/04/29 11:14:30;;;;;;;0.40;0.40;;;18.50;99.90;;;;;;5038518;28;20139;-91
2023/04/29 11:16:58;;;;;;;1.13;0.50;;;18.70;99.90;;;;;;5054593;28;20092;-90
2023/04/29 11:19:33;;;;;;;0.90;0.50;;;18.80;99.90;;;;;;5037877;28;20486;-90
2023/04/29 11:22:14;;;;;;;0.82;0.60;;;18.60;99.90;;;;;;5038184;28;20044;-90
2023/04/29 11:25:03;;;;;;;0.90;0.60;;;18.50;99.90;;;;;;5038439;28;20048;-90
2023/04/29 11:27:34;;;;;;;0.57;0.20;;;18.60;98.10;;;;;;5038156;28;20509;-91
2023/04/29 11:30:05;;;;;;;0.40;0.25;;;17.80;99.90;;;;;;5054419;28;20051;-91
2023/04/29 11:32:39;;;;;;;0.57;0.47;;;18.50;99.90;;;;;;5054912;28;20048;-90
2023/04/29 11:35:08;;;;;;;1.48;0.32;;;18.50;99.90;;;;;;5037894;28;20044;-91
2023/04/29 11:37:36;;;;;;;0.22;0.10;;;18.60;99.90;;;;;;5038349;28;20060;-91
2023/04/29 11:40:02;;;;;;;1.08;0.50;;;18.50;99.90;;;;;;5038196;28;20074;-91
2023/04/29 11:42:28;;;;;;;0.70;0.63;;;17.90;99.80;;;;;;5038461;28;20060;-91
2023/04/29 11:44:59;;;;;;;1.52;0.47;;;18.70;99.90;;;;;;5054455;28;20131;-89
2023/04/29 11:47:29;;;;;;;0.50;0.50;;;18.70;97.90;;;;;;5038590;28;20106;-91
2023/04/29 11:50:07;;;;;;;0.20;0.20;;;18.60;99.90;;;;;;5037742;28;20048;-91
2023/04/29 11:52:35;;;;;;;0.40;0.40;;;18.60;99.90;;;;;;5054632;28;20491;-92
2023/04/29 11:55:03;;;;;;;0.88;0.70;;;18.60;96.80;;;;;;5037516;28;20048;-91
2023/04/29 11:57:29;;;;;;;0.63;0.40;;;18.40;97.50;;;;;;5037993;28;20063;-91
2023/04/29 11:59:56;;;;;;;0.32;0.30;;;18.20;99.90;;;;;;5037312;28;20491;-91
2023/04/29 12:02:27;;;;;;;0.38;0.38;;;18.30;99.90;;;;;;5037913;28;20564;-91
2023/04/29 12:05:01;;;;;;;0.43;0.43;;;18.50;99.90;;;;;;5054803;28;20044;-91
2023/04/29 12:07:27;;;;;;;0.25;0.25;;;18.60;99.90;;;;;;5022999;28;20049;-91
2023/04/29 12:10:10;;;;;;;0.68;0.43;;;18.60;99.90;;;;;;5054040;28;20044;-89
2023/04/29 12:12:40;;;;;;;0.80;0.63;;;18.50;96.90;;;;;;5054860;28;20036;-91
2023/04/29 12:15:10;;;;;;;0.30;0.30;;;17.90;99.90;;;;;;5037585;28;20056;-91
2023/04/29 12:17:37;;;;;;;0.45;0.20;;;18.40;96.30;;;;;;5037662;28;20134;-91
2023/04/29 12:20:07;;;;;;;0.20;0.20;;;18.60;99.90;;;;;;5037076;28;20052;-90
2023/04/29 12:22:33;;;;;;;0.65;0.30;;;19.10;99.90;;;;;;5037687;28;20060;-90
2023/04/29 12:24:58;;;;;;;0.20;0.20;;;19.40;96.20;;;;;;5058298;28;20127;-91
2023/04/29 12:27:25;;;;;;;0.35;0.35;;;19.30;98.80;;;;;;5041956;28;20551;-90
2023/04/29 12:29:52;;;;;;;0.22;0.22;;;19.30;93.40;;;;;;5025209;28;20102;-91
2023/04/29 12:32:22;;;;;;;0.22;0.20;;;19.30;91.90;;;;;;5057653;28;20143;-90
2023/04/29 12:34:51;;;;;;;0.75;0.75;;;19.30;91.70;;;;;;5041728;28;20135;-91
2023/04/29 12:37:17;;;;;;;0.20;0.10;;;19.20;93.40;;;;;;5057855;28;20044;-90
2023/04/29 12:39:43;;;;;;;0.20;0.20;;;19.10;94.60;;;;;;5058029;28;20041;-90
2023/04/29 12:42:21;;;;;;;0.30;0.30;;;19.00;89.00;;;;;;5041280;28;20399;-90
2023/04/29 12:44:47;;;;;;;0.63;0.63;;;18.90;87.70;;;;;;5041772;28;20403;-91
2023/04/29 12:47:14;;;;;;;0.22;0.20;;;18.90;93.00;;;;;;5057737;28;20040;-91
2023/04/29 12:49:44;;;;;;;0.35;0.28;;;19.00;94.30;;;;;;5041360;28;20134;-90
2023/04/29 12:52:10;;;;;;;0.05;0.05;;;18.50;89.30;;;;;;5040979;28;20052;-91
2023/04/29 12:54:36;;;;;;;;;;;19.10;95.30;;;;;;5058359;28;20051;-90
2023/04/29 12:57:03;;;;;;;1.35;0.38;;;18.80;83.60;;;;;;5057443;28;20332;-90
2023/04/29 12:59:28;;;;;;;;;;;18.80;89.20;;;;;;5041326;28;20047;-91